Renwick, Iowa
Current Conditions -  °F | °C
As of 10:15 PM on Tuesday 25 Nov 2014 (Local Time) from KCAV Reporting Station
Overcast Overcast  
Wind Chill: 12°   Ceiling: 7500
Heat Index: 25°   Visibility: 10mi
Dew Point: 18°   Wind: 16mph
Humidity: 74%   Direction: 140°SE
Pressure: 29.98"   Gusts: NA
Location:  42.83°N, 93.98°W
Report Text: KCAV 260415Z AUTO 14014KT 10SM BKN075 OVC085 M04/M08 A2998 RMK AO2
Loading
Personal Weather Stations






























Interactive Weather Map New forecast layout! Learn more

10-Day Weather Forecast

Advertisements
Track Severe Weather on mobile